Autoreparaturen.de
kostenlose Werkstattsuche
SERVICE HOTLINE: 06301 600-2999 (1)

Volvo - Günstige KFZ-Reparaturen

Für Volvo eine preiswerte Autowerkstatt in der Nähe finden. Nutzen Sie für Ihr Fahrzeug der Marke Volvo unsere Kfz Werkstattsuche und finden schnell eine günstige Autowerkstatt. Nutzen Sie rechts unser Werkstattanfragenformular, um Ihre Preisanfrage zu stellen.

Hier sehen Sie letzten Autoreparatur-Anfragen für Volvo

Datum Autohersteller Kfz-Modell Kfz-Typ Werkstatt Ort Werkstattleistung
14.08.2018 09:27:32 Volvo V 40 Kombi 1.8 16V Magdeburg Kupplung
11.08.2018 07:28:51 Volvo S 80 Lim 2.4 Momentum (125kW) Ellerbek Zahnriemen / Steuerkette
09.08.2018 15:51:21 Volvo V 50 Kombi 1.6 D Lübeck Kupplung
08.08.2018 21:29:19 Volvo XC 90 D5 Kinetic (136kW) Roth Sonstige
08.08.2018 17:42:28 Volvo V 70 Kombi 2.4 (103kW) Ahlen Klima / Heizung / Kühler
08.08.2018 07:17:25 Volvo S 40 Lim T5 Momentum Tettau Fahrwerk & Stoßdämpfer
05.08.2018 21:06:18 Volvo V 50 Kombi 2.0 D Freudenberg Sonstige
05.08.2018 20:38:52 Volvo V 70 Kombi 2.4 (103kW) Bad Salzuflen Inspektion
05.08.2018 20:38:04 Volvo V 50 Kombi 2.0 D Summum München Sonstige
04.08.2018 23:26:56 Volvo Serie 850 2.0 10V Kombi Berlin Fahrwerk & Stoßdämpfer
04.08.2018 23:22:07 Volvo Serie 850 2.0 10V Kombi Berlin Klimaservice
04.08.2018 12:18:16 Volvo V 70 Kombi 2.0 T Castrop-Rauxel Kupplung
02.08.2018 12:47:03 Volvo V 40 Kombi 2.0 T Chemnitz Turbolader
01.08.2018 12:19:01 Volvo C 70 Cabriolet D5 Summum Plettenberg Zahnriemen / Steuerkette
31.07.2018 23:56:35 Volvo V 40 Kombi 1.9 D (85kW) Bad Saulgau Zahnriemen / Steuerkette
31.07.2018 17:37:59 Volvo S 40 Lim T5 Momentum Tettau Fahrwerk & Stoßdämpfer
31.07.2018 07:01:36 Volvo V 70 Kombi 2.0 T Ehrenfriedersdorf Kupplung
29.07.2018 09:49:19 Volvo V 60 Kombi Basis Königswinter Anhängerkupplung
28.07.2018 19:43:08 Volvo V 70 Kombi 2.0 T Ehrenfriedersdorf Kupplung
25.07.2018 18:32:08 Volvo Serie 850 2.5 10V Lim. Wurzen Kupplung
24.07.2018 12:30:36 Volvo Serie 850 2.5 20V Kombi Aachen Achsvermessung
20.07.2018 22:00:35 Volvo V 50 Kombi 1.6 D Hamburg Klima / Heizung / Kühler
19.07.2018 08:44:47 Volvo V 60 Kombi Kinetic Hamburg Bremsen
18.07.2018 14:41:05 Volvo C 30 2.0 D Edition Glinde Bremsen
16.07.2018 18:25:04 Volvo C 70 Cabriolet 2.0 T Homberg (Ohm) Wasserpumpe
16.07.2018 18:15:46 Volvo C 70 Cabriolet 2.0 T Homberg (Ohm) Wasserpumpe
14.07.2018 18:18:59 Volvo V 40 Kombi 1.9 D Uhldingen-Mühlhofen Kupplung
12.07.2018 18:10:52 Volvo V 70 Kombi 2.4 (103kW) Leipzig Anhängerkupplung
12.07.2018 11:05:45 Volvo XC 60 Momentum 2WD Maintal Sonstige
Sie suchen für Volvo eine günstige Werkstatt? Anfrage jetzt stellen
10.07.2018 19:59:53 Volvo V 70 Kombi 2.4 (103kW) Wuppertal Kupplung
10.07.2018 15:54:18 Volvo C 30 1.6 Baden-Baden Auspuff
09.07.2018 10:12:59 Volvo V 70 Kombi Kinetic Worms Zahnriemen / Steuerkette
09.07.2018 10:01:28 Volvo C 30 1.6 Karlsruhe Auspuff
08.07.2018 13:55:56 Volvo V 70 Kombi 2.5 T AWD Ehringshausen Auspuff
08.07.2018 13:52:29 Volvo V 70 Kombi 2.5 T AWD Ehringshausen Auspuff
06.07.2018 23:53:42 Volvo XC 60 Summum AWD Bremen Bremsen
06.07.2018 17:44:53 Volvo XC 60 Momentum 2WD Maintal Anhängerkupplung
05.07.2018 16:15:22 Volvo V 70 Kombi 2.5 T AWD Ehringshausen Auspuff
04.07.2018 12:16:55 Volvo XC 60 Summum AWD Marl Bremsen
03.07.2018 19:45:05 Volvo V 50 Kombi 2.0 D Momentum Bad Salzuflen Sonstige
03.07.2018 18:13:03 Volvo V 40 Kombi 1.6 Karsbach Sonstige
03.07.2018 05:55:26 Volvo S 60 Lim Basis AWD Grünebach Sonstige
27.06.2018 16:32:05 Volvo V 40 Kombi 1.8 16V Uelzen Zahnriemen / Steuerkette
27.06.2018 01:03:59 Volvo V 70 Kombi 2.5 T Summum (2004->) Berlin Wasserpumpe
26.06.2018 14:24:13 Volvo S 40 Lim 1.8i Rostock Kupplung
25.06.2018 23:28:22 Volvo XC 70 Momentum AWD Ottweiler Bremsen
25.06.2018 21:06:41 Volvo V 70 Kombi 2.4 D Mülheim An Der Ruhr Achsvermessung
25.06.2018 16:14:19 Volvo V 50 Kombi 2.0 D Magdeburg Bremsen
25.06.2018 12:24:07 Volvo V 50 Kombi 1.8 Berlin Fahrwerk & Stoßdämpfer
25.06.2018 09:36:53 Volvo V 70 Kombi Summum Berlin Inspektion
25.06.2018 09:26:32 Volvo V 50 Kombi 1.6 Kinetic Wetzlar Sonstige
23.06.2018 17:30:59 Volvo V 50 Kombi 1.6 D Wetzlar Sonstige
21.06.2018 18:44:52 Volvo V 40 Kombi 1.9 D (85kW) Gießen Reifendienstleistung
20.06.2018 16:34:54 Volvo XC 90 2.5 T Kinetic (7 Sitze) Zarrentin Am Schaalsee Zahnriemen / Steuerkette
19.06.2018 21:16:52 Volvo S 60 Lim Momentum Kirchheim Unter Teck Zahnriemen / Steuerkette
18.06.2018 20:34:23 Volvo Serie 740 Lim GL Kombi Hannover Fahrwerk & Stoßdämpfer
18.06.2018 20:07:46 Volvo XC 60 Ocean Race 2WD Duisburg Bremsen
15.06.2018 19:50:34 Volvo V 70 Kombi 2.5 T AWD Ehringshausen Bremsen
14.06.2018 22:36:47 Volvo V 40 Kombi 1.8 16V Tübingen Radlager
Sie suchen für Volvo eine günstige Werkstatt? Anfrage jetzt stellen
10.06.2018 18:16:16 Volvo V 70 Kombi Momentum Löhne Bremsen
10.06.2018 17:57:44 Volvo V 70 Kombi 2.5 T AWD Ehringshausen Bremsen
10.06.2018 05:00:59 Volvo V 70 Kombi 2.4 (103kW) Stuttgart Zahnriemen / Steuerkette
10.06.2018 04:57:59 Volvo V 70 Kombi 2.4 (103kW) Stuttgart Zahnriemen / Steuerkette
10.06.2018 04:54:53 Volvo V 70 Kombi 2.4 (103kW) Stuttgart Zahnriemen / Steuerkette
10.06.2018 04:37:48 Volvo V 70 Kombi 2.4 (103kW) Stuttgart Zahnriemen / Steuerkette
09.06.2018 23:43:11 Volvo V 70 Kombi 2.5 T AWD Ehringshausen Bremsen
09.06.2018 06:49:48 Volvo V 70 Kombi Summum Trier Keilriemen
07.06.2018 18:55:45 Volvo V 40 Kombi 1.6 Berlins Zahnriemen / Steuerkette
07.06.2018 17:41:55 Volvo S 60 Lim 2.4 (125kW) Münsterhausen Kupplung
06.06.2018 09:25:41 Volvo C 70 Cabriolet 2.0 T Gehrden Sonstige
05.06.2018 09:29:25 Volvo V 70 Kombi 2.4 / 2.5 (103kW / 106kW) Halle (Saale) Anhängerkupplung
04.06.2018 12:00:02 Volvo V 70 Kombi 2.0 Dallgow-Döberitz Sonstige
02.06.2018 14:17:03 Volvo V 70 Kombi 2.5 T AWD Ehringshausen Sonstige
28.05.2018 19:47:51 Volvo XC 60 Momentum AWD Göttingen Zylinderkopfdichtung
28.05.2018 18:00:13 Volvo V 70 Kombi Kinetic Augsburg Kupplung
28.05.2018 14:26:49 Volvo V 50 Kombi D3 Ottobrunn Fahrwerk & Stoßdämpfer
27.05.2018 17:42:07 Volvo S 60 Lim 2.4 (103kW) Salzgitter Zahnriemen / Steuerkette
26.05.2018 08:38:16 Volvo V 70 Kombi 2.0 Selm Anlasser
25.05.2018 23:27:29 Volvo C 70 Cabriolet D5 Summum Troisdorf Fahrwerk & Stoßdämpfer
23.05.2018 09:06:11 Volvo Serie 850 2.0 10V Kombi Berlin Zylinderkopfdichtung
22.05.2018 16:37:53 Volvo C 70 Cabriolet D5 Summum Troisdorf Sonstige
22.05.2018 14:50:50 Volvo S 80 Lim 2.9 Bad König Bremsen
20.05.2018 21:59:47 Volvo V 50 Kombi 2.0 D Momentum Bad Salzuflen Sonstige
19.05.2018 13:30:19 Volvo V 60 Kombi Pure Limited AWD (Plug-in Hybrid) Dresden Inspektion
18.05.2018 21:14:24 Volvo V 70 Kombi 2.5 T AWD Ehringshausen Zahnriemen / Steuerkette
17.05.2018 09:23:45 Volvo V 50 Kombi 1.6 Momentum Potsdam Sonstige
16.05.2018 21:08:13 Volvo V 40 Kombi 1.8 Classic Limited Edition Stuttgart Sonstige
16.05.2018 09:03:04 Volvo XC 90 D5 Edition Geartronic (147 kW)(7 Sitze) Hamburg Anhängerkupplung
15.05.2018 22:44:41 Volvo V 70 Kombi 2.4 (125kW) Kirchhain Reifenwechsel 4 Räder
Sie suchen für Volvo eine günstige Werkstatt? Anfrage jetzt stellen
15.05.2018 21:47:46 Volvo XC 90 2.4 D Summum Geartronic (7 Sitze) Erlangen Radlager
15.05.2018 21:30:45 Volvo V 70 Kombi 2.5 T AWD Ehringshausen Sonstige
15.05.2018 17:10:00 Volvo Serie 850 2.0 10V Kombi Berlin Klima / Heizung / Kühler
13.05.2018 18:41:05 Volvo V 70 Kombi 2.4 T / 2.5 T Hagen Sonstige
13.05.2018 15:05:24 Volvo V 70 Kombi T5 Limbach-Oberfrohna Getriebe
12.05.2018 10:08:00 Volvo V 70 Kombi 2.4 (103kW) Köln Sonstige
07.05.2018 22:25:11 Volvo XC 90 D5 Sport Panketal Bremsen
06.05.2018 13:57:43 Volvo S 60 Lim 2.4 (125kW) Kirchheim Unter Teck Kupplung
05.05.2018 15:53:34 Volvo V 40 Kombi 1.9 D Ostfildern Sonstige
04.05.2018 21:51:15 Volvo V 40 Kombi 1.9 D Ostfildern Sonstige
04.05.2018 14:20:14 Volvo V 60 Kombi Summum Großenhain Bremsen

Hier können Sie kostenlos Werkstattangebote einholen!

Wählen Sie Hersteller und Modell Ihres Fahrzeugs aus den folgenden Listen aus.

Geben Sie die Schlüsselnummern Ihres Fahrzeuges in das unten stehenden Felder ein.

Kfz-Brief Schlüsselnummern

Sie brauchen Hilfe?

Telefon: 06301 600-2999

oder schreiben Sie uns
E-Mail

Bitte haben Sie einen Moment Geduld...